sensor_id;sensor_type;location;lat;lon;timestamp;P1;durP1;ratioP1;P2;durP2;ratioP2
82410;SDS011;74662;60.040;30.218;2024-01-15T00:00:43;6.68;;;3.45;;
82410;SDS011;74662;60.040;30.218;2024-01-15T00:01:43;5.78;;;2.70;;
82410;SDS011;74662;60.040;30.218;2024-01-15T00:03:03;9.63;;;3.08;;
82410;SDS011;74662;60.040;30.218;2024-01-15T00:04:22;8.10;;;2.58;;
82410;SDS011;74662;60.040;30.218;2024-01-15T00:05:23;7.15;;;2.97;;
82410;SDS011;74662;60.040;30.218;2024-01-15T00:06:24;5.15;;;2.50;;
82410;SDS011;74662;60.040;30.218;2024-01-15T00:07:24;8.90;;;2.80;;
82410;SDS011;74662;60.040;30.218;2024-01-15T00:08:25;4.88;;;2.60;;
82410;SDS011;74662;60.040;30.218;2024-01-15T00:09:25;6.38;;;2.65;;
82410;SDS011;74662;60.040;30.218;2024-01-15T00:10:27;5.88;;;2.78;;
82410;SDS011;74662;60.040;30.218;2024-01-15T00:11:46;7.68;;;2.70;;
82410;SDS011;74662;60.040;30.218;2024-01-15T00:12:47;6.88;;;2.70;;
82410;SDS011;74662;60.040;30.218;2024-01-15T00:13:47;9.07;;;3.83;;
82410;SDS011;74662;60.040;30.218;2024-01-15T00:14:48;6.90;;;2.97;;
82410;SDS011;74662;60.040;30.218;2024-01-15T00:15:49;11.68;;;3.17;;
82410;SDS011;74662;60.040;30.218;2024-01-15T00:16:49;6.15;;;2.72;;
82410;SDS011;74662;60.040;30.218;2024-01-15T00:17:51;6.47;;;3.10;;
82410;SDS011;74662;60.040;30.218;2024-01-15T00:18:51;4.85;;;2.35;;
82410;SDS011;74662;60.040;30.218;2024-01-15T00:19:52;4.55;;;2.40;;
82410;SDS011;74662;60.040;30.218;2024-01-15T00:20:53;8.23;;;2.63;;
82410;SDS011;74662;60.040;30.218;2024-01-15T00:21:53;8.65;;;3.58;;
82410;SDS011;74662;60.040;30.218;2024-01-15T00:22:54;7.93;;;3.15;;
82410;SDS011;74662;60.040;30.218;2024-01-15T00:23:54;8.93;;;3.28;;
82410;SDS011;74662;60.040;30.218;2024-01-15T00:24:55;7.72;;;2.90;;
82410;SDS011;74662;60.040;30.218;2024-01-15T00:26:14;4.47;;;2.35;;
82410;SDS011;74662;60.040;30.218;2024-01-15T00:29:36;7.13;;;2.92;;
82410;SDS011;74662;60.040;30.218;2024-01-15T00:30:36;7.65;;;3.15;;
82410;SDS011;74662;60.040;30.218;2024-01-15T00:31:37;5.32;;;2.70;;
82410;SDS011;74662;60.040;30.218;2024-01-15T00:32:37;6.50;;;3.15;;
82410;SDS011;74662;60.040;30.218;2024-01-15T00:33:38;5.97;;;2.63;;
82410;SDS011;74662;60.040;30.218;2024-01-15T00:35:58;6.22;;;2.45;;
82410;SDS011;74662;60.040;30.218;2024-01-15T00:36:58;8.27;;;2.97;;
82410;SDS011;74662;60.040;30.218;2024-01-15T00:37:59;6.45;;;2.95;;
82410;SDS011;74662;60.040;30.218;2024-01-15T00:39:00;8.18;;;3.13;;
82410;SDS011;74662;60.040;30.218;2024-01-15T00:40:00;6.30;;;3.15;;
82410;SDS011;74662;60.040;30.218;2024-01-15T00:41:01;9.35;;;3.78;;
82410;SDS011;74662;60.040;30.218;2024-01-15T00:42:03;6.82;;;2.60;;
82410;SDS011;74662;60.040;30.218;2024-01-15T00:43:03;5.30;;;2.50;;
82410;SDS011;74662;60.040;30.218;2024-01-15T00:44:04;7.18;;;2.95;;
82410;SDS011;74662;60.040;30.218;2024-01-15T00:45:04;10.30;;;2.47;;
82410;SDS011;74662;60.040;30.218;2024-01-15T00:46:07;7.53;;;3.22;;
82410;SDS011;74662;60.040;30.218;2024-01-15T00:47:08;7.70;;;3.35;;
82410;SDS011;74662;60.040;30.218;2024-01-15T00:48:09;8.30;;;3.10;;
82410;SDS011;74662;60.040;30.218;2024-01-15T00:49:09;8.38;;;2.67;;
82410;SDS011;74662;60.040;30.218;2024-01-15T00:50:10;7.95;;;2.72;;
82410;SDS011;74662;60.040;30.218;2024-01-15T00:51:11;7.32;;;2.88;;
82410;SDS011;74662;60.040;30.218;2024-01-15T00:52:12;7.60;;;2.83;;
82410;SDS011;74662;60.040;30.218;2024-01-15T00:53:12;11.05;;;3.60;;
82410;SDS011;74662;60.040;30.218;2024-01-15T00:54:50;6.00;;;2.85;;
82410;SDS011;74662;60.040;30.218;2024-01-15T00:55:51;10.68;;;3.17;;
82410;SDS011;74662;60.040;30.218;2024-01-15T00:56:51;8.52;;;2.75;;
82410;SDS011;74662;60.040;30.218;2024-01-15T00:58:10;4.40;;;2.75;;
82410;SDS011;74662;60.040;30.218;2024-01-15T00:59:11;6.57;;;3.10;;
82410;SDS011;74662;60.040;30.218;2024-01-15T01:00:14;8.77;;;2.97;;
82410;SDS011;74662;60.040;30.218;2024-01-15T01:02:35;7.95;;;3.20;;
82410;SDS011;74662;60.040;30.218;2024-01-15T01:03:35;6.60;;;3.05;;
82410;SDS011;74662;60.040;30.218;2024-01-15T01:04:36;9.05;;;3.33;;
82410;SDS011;74662;60.040;30.218;2024-01-15T01:06:56;6.60;;;2.97;;
82410;SDS011;74662;60.040;30.218;2024-01-15T01:07:56;8.18;;;3.05;;
82410;SDS011;74662;60.040;30.218;2024-01-15T01:10:34;3.63;;;2.70;;
82410;SDS011;74662;60.040;30.218;2024-01-15T01:11:35;6.85;;;2.83;;
82410;SDS011;74662;60.040;30.218;2024-01-15T01:12:35;7.07;;;3.13;;
82410;SDS011;74662;60.040;30.218;2024-01-15T01:13:36;7.70;;;3.30;;
82410;SDS011;74662;60.040;30.218;2024-01-15T01:14:37;7.30;;;2.97;;
82410;SDS011;74662;60.040;30.218;2024-01-15T01:15:37;6.28;;;2.35;;
82410;SDS011;74662;60.040;30.218;2024-01-15T01:16:38;7.85;;;2.97;;
82410;SDS011;74662;60.040;30.218;2024-01-15T01:17:39;7.63;;;3.03;;
82410;SDS011;74662;60.040;30.218;2024-01-15T01:18:39;10.23;;;3.70;;
82410;SDS011;74662;60.040;30.218;2024-01-15T01:20:59;7.47;;;2.40;;
82410;SDS011;74662;60.040;30.218;2024-01-15T01:21:59;6.43;;;2.55;;
82410;SDS011;74662;60.040;30.218;2024-01-15T01:23:00;6.95;;;2.97;;
82410;SDS011;74662;60.040;30.218;2024-01-15T01:24:00;7.43;;;3.15;;
82410;SDS011;74662;60.040;30.218;2024-01-15T01:25:01;6.35;;;2.63;;
82410;SDS011;74662;60.040;30.218;2024-01-15T01:26:02;7.07;;;2.97;;
82410;SDS011;74662;60.040;30.218;2024-01-15T01:27:02;7.40;;;3.50;;
82410;SDS011;74662;60.040;30.218;2024-01-15T01:28:03;8.90;;;2.80;;
82410;SDS011;74662;60.040;30.218;2024-01-15T01:29:22;9.88;;;3.10;;
82410;SDS011;74662;60.040;30.218;2024-01-15T01:32:44;4.53;;;2.50;;
82410;SDS011;74662;60.040;30.218;2024-01-15T01:33:44;5.40;;;2.38;;
82410;SDS011;74662;60.040;30.218;2024-01-15T01:34:45;7.78;;;3.03;;
82410;SDS011;74662;60.040;30.218;2024-01-15T01:37:07;6.40;;;2.80;;
82410;SDS011;74662;60.040;30.218;2024-01-15T01:38:26;4.75;;;2.35;;
82410;SDS011;74662;60.040;30.218;2024-01-15T01:39:27;4.57;;;2.25;;
82410;SDS011;74662;60.040;30.218;2024-01-15T01:40:28;7.20;;;2.75;;
82410;SDS011;74662;60.040;30.218;2024-01-15T01:41:28;6.85;;;2.97;;
82410;SDS011;74662;60.040;30.218;2024-01-15T01:43:48;6.70;;;2.47;;
82410;SDS011;74662;60.040;30.218;2024-01-15T01:45:26;4.35;;;2.05;;
82410;SDS011;74662;60.040;30.218;2024-01-15T01:46:27;4.32;;;2.30;;
82410;SDS011;74662;60.040;30.218;2024-01-15T01:49:48;4.38;;;2.53;;
82410;SDS011;74662;60.040;30.218;2024-01-15T01:50:49;5.25;;;2.15;;
82410;SDS011;74662;60.040;30.218;2024-01-15T01:51:49;7.60;;;2.83;;
82410;SDS011;74662;60.040;30.218;2024-01-15T01:54:10;5.72;;;2.47;;
82410;SDS011;74662;60.040;30.218;2024-01-15T01:55:13;4.80;;;2.60;;
82410;SDS011;74662;60.040;30.218;2024-01-15T01:56:14;7.47;;;2.67;;
82410;SDS011;74662;60.040;30.218;2024-01-15T01:57:15;7.30;;;3.05;;
82410;SDS011;74662;60.040;30.218;2024-01-15T01:58:18;8.13;;;3.22;;
82410;SDS011;74662;60.040;30.218;2024-01-15T01:59:19;8.27;;;3.78;;
82410;SDS011;74662;60.040;30.218;2024-01-15T02:00:20;7.32;;;2.85;;
82410;SDS011;74662;60.040;30.218;2024-01-15T02:01:21;8.25;;;3.25;;
82410;SDS011;74662;60.040;30.218;2024-01-15T02:02:22;8.38;;;2.63;;
82410;SDS011;74662;60.040;30.218;2024-01-15T02:03:23;6.80;;;3.03;;
82410;SDS011;74662;60.040;30.218;2024-01-15T02:04:24;5.25;;;2.95;;
82410;SDS011;74662;60.040;30.218;2024-01-15T02:06:44;6.25;;;2.70;;
82410;SDS011;74662;60.040;30.218;2024-01-15T02:07:45;5.30;;;2.40;;
82410;SDS011;74662;60.040;30.218;2024-01-15T02:09:04;7.22;;;3.08;;
82410;SDS011;74662;60.040;30.218;2024-01-15T02:10:05;8.45;;;2.92;;
82410;SDS011;74662;60.040;30.218;2024-01-15T02:11:06;5.68;;;2.58;;
82410;SDS011;74662;60.040;30.218;2024-01-15T02:12:07;7.18;;;3.20;;
82410;SDS011;74662;60.040;30.218;2024-01-15T02:13:07;7.80;;;2.75;;
82410;SDS011;74662;60.040;30.218;2024-01-15T02:14:26;7.65;;;3.00;;
82410;SDS011;74662;60.040;30.218;2024-01-15T02:16:46;5.55;;;2.63;;
82410;SDS011;74662;60.040;30.218;2024-01-15T02:17:59;5.60;;;2.28;;
82410;SDS011;74662;60.040;30.218;2024-01-15T02:19:20;6.30;;;2.97;;
82410;SDS011;74662;60.040;30.218;2024-01-15T02:20:39;6.47;;;2.25;;
82410;SDS011;74662;60.040;30.218;2024-01-15T02:21:39;7.25;;;3.28;;
82410;SDS011;74662;60.040;30.218;2024-01-15T02:22:40;6.75;;;2.90;;
82410;SDS011;74662;60.040;30.218;2024-01-15T02:23:40;8.90;;;2.97;;
82410;SDS011;74662;60.040;30.218;2024-01-15T02:24:41;7.85;;;3.42;;
82410;SDS011;74662;60.040;30.218;2024-01-15T02:25:43;8.40;;;3.08;;
82410;SDS011;74662;60.040;30.218;2024-01-15T02:27:02;9.10;;;2.78;;
82410;SDS011;74662;60.040;30.218;2024-01-15T02:28:03;7.25;;;2.72;;
82410;SDS011;74662;60.040;30.218;2024-01-15T02:29:22;5.90;;;2.80;;
82410;SDS011;74662;60.040;30.218;2024-01-15T02:30:42;4.68;;;2.38;;
82410;SDS011;74662;60.040;30.218;2024-01-15T02:31:43;6.15;;;2.78;;
82410;SDS011;74662;60.040;30.218;2024-01-15T02:32:44;7.35;;;2.97;;
82410;SDS011;74662;60.040;30.218;2024-01-15T02:34:03;10.05;;;2.78;;
82410;SDS011;74662;60.040;30.218;2024-01-15T02:35:04;7.82;;;3.33;;
82410;SDS011;74662;60.040;30.218;2024-01-15T02:36:23;5.60;;;2.53;;
82410;SDS011;74662;60.040;30.218;2024-01-15T02:37:23;6.25;;;2.92;;
82410;SDS011;74662;60.040;30.218;2024-01-15T02:38:42;4.43;;;2.22;;
82410;SDS011;74662;60.040;30.218;2024-01-15T02:39:43;5.18;;;3.35;;
82410;SDS011;74662;60.040;30.218;2024-01-15T02:40:44;6.25;;;2.85;;
82410;SDS011;74662;60.040;30.218;2024-01-15T02:42:04;6.85;;;2.83;;
82410;SDS011;74662;60.040;30.218;2024-01-15T02:43:05;7.40;;;3.53;;
82410;SDS011;74662;60.040;30.218;2024-01-15T02:44:05;4.60;;;2.38;;
82410;SDS011;74662;60.040;30.218;2024-01-15T02:45:24;8.63;;;3.30;;
82410;SDS011;74662;60.040;30.218;2024-01-15T02:46:43;6.63;;;2.60;;
82410;SDS011;74662;60.040;30.218;2024-01-15T02:47:44;8.75;;;3.53;;
82410;SDS011;74662;60.040;30.218;2024-01-15T02:48:44;7.05;;;2.88;;
82410;SDS011;74662;60.040;30.218;2024-01-15T02:49:45;10.50;;;3.35;;
82410;SDS011;74662;60.040;30.218;2024-01-15T02:50:46;7.00;;;2.95;;
82410;SDS011;74662;60.040;30.218;2024-01-15T02:52:05;5.45;;;3.03;;
82410;SDS011;74662;60.040;30.218;2024-01-15T02:53:06;8.35;;;3.15;;
82410;SDS011;74662;60.040;30.218;2024-01-15T02:54:06;5.30;;;2.80;;
82410;SDS011;74662;60.040;30.218;2024-01-15T02:55:07;5.20;;;2.75;;
82410;SDS011;74662;60.040;30.218;2024-01-15T02:56:08;6.63;;;2.88;;
82410;SDS011;74662;60.040;30.218;2024-01-15T02:57:09;7.55;;;3.20;;
82410;SDS011;74662;60.040;30.218;2024-01-15T02:58:09;7.70;;;3.00;;
82410;SDS011;74662;60.040;30.218;2024-01-15T02:59:10;5.97;;;2.72;;
82410;SDS011;74662;60.040;30.218;2024-01-15T03:00:10;8.30;;;2.88;;
82410;SDS011;74662;60.040;30.218;2024-01-15T03:01:14;6.43;;;2.40;;
82410;SDS011;74662;60.040;30.218;2024-01-15T03:02:15;7.13;;;3.58;;
82410;SDS011;74662;60.040;30.218;2024-01-15T03:03:15;6.53;;;3.03;;
82410;SDS011;74662;60.040;30.218;2024-01-15T03:04:16;8.27;;;2.63;;
82410;SDS011;74662;60.040;30.218;2024-01-15T03:05:16;7.53;;;2.88;;
82410;SDS011;74662;60.040;30.218;2024-01-15T03:06:17;5.15;;;2.30;;
82410;SDS011;74662;60.040;30.218;2024-01-15T03:07:18;5.88;;;2.80;;
82410;SDS011;74662;60.040;30.218;2024-01-15T03:08:18;7.25;;;3.13;;
82410;SDS011;74662;60.040;30.218;2024-01-15T03:09:19;8.00;;;3.42;;
82410;SDS011;74662;60.040;30.218;2024-01-15T03:10:19;5.55;;;2.78;;
82410;SDS011;74662;60.040;30.218;2024-01-15T03:11:20;7.50;;;3.58;;
82410;SDS011;74662;60.040;30.218;2024-01-15T03:12:20;10.20;;;3.15;;
82410;SDS011;74662;60.040;30.218;2024-01-15T03:13:21;6.90;;;2.67;;
82410;SDS011;74662;60.040;30.218;2024-01-15T03:14:22;7.35;;;2.55;;
82410;SDS011;74662;60.040;30.218;2024-01-15T03:15:24;9.65;;;2.95;;
82410;SDS011;74662;60.040;30.218;2024-01-15T03:16:25;4.25;;;2.95;;
82410;SDS011;74662;60.040;30.218;2024-01-15T03:17:44;5.57;;;3.20;;
82410;SDS011;74662;60.040;30.218;2024-01-15T03:18:44;7.15;;;3.15;;
82410;SDS011;74662;60.040;30.218;2024-01-15T03:19:45;10.57;;;3.65;;
82410;SDS011;74662;60.040;30.218;2024-01-15T03:20:46;8.50;;;3.47;;
82410;SDS011;74662;60.040;30.218;2024-01-15T03:22:04;5.13;;;2.80;;
82410;SDS011;74662;60.040;30.218;2024-01-15T03:23:08;10.32;;;3.20;;
82410;SDS011;74662;60.040;30.218;2024-01-15T03:24:09;7.47;;;3.35;;
82410;SDS011;74662;60.040;30.218;2024-01-15T03:25:09;6.65;;;2.53;;
82410;SDS011;74662;60.040;30.218;2024-01-15T03:26:10;8.52;;;3.15;;
82410;SDS011;74662;60.040;30.218;2024-01-15T03:27:10;6.75;;;2.72;;
82410;SDS011;74662;60.040;30.218;2024-01-15T03:28:11;5.30;;;2.90;;
82410;SDS011;74662;60.040;30.218;2024-01-15T03:29:11;6.82;;;2.42;;
82410;SDS011;74662;60.040;30.218;2024-01-15T03:30:12;7.00;;;2.95;;
82410;SDS011;74662;60.040;30.218;2024-01-15T03:31:13;9.02;;;3.30;;
82410;SDS011;74662;60.040;30.218;2024-01-15T03:32:14;11.43;;;3.30;;
82410;SDS011;74662;60.040;30.218;2024-01-15T03:33:16;8.27;;;3.10;;
82410;SDS011;74662;60.040;30.218;2024-01-15T03:34:17;7.18;;;3.05;;
82410;SDS011;74662;60.040;30.218;2024-01-15T03:35:18;9.23;;;3.53;;
82410;SDS011;74662;60.040;30.218;2024-01-15T03:36:18;7.15;;;3.05;;
82410;SDS011;74662;60.040;30.218;2024-01-15T03:37:19;12.20;;;3.95;;
82410;SDS011;74662;60.040;30.218;2024-01-15T03:38:19;11.18;;;3.72;;
82410;SDS011;74662;60.040;30.218;2024-01-15T03:39:20;10.02;;;4.43;;
82410;SDS011;74662;60.040;30.218;2024-01-15T03:40:39;6.40;;;3.30;;
82410;SDS011;74662;60.040;30.218;2024-01-15T03:41:58;7.15;;;3.53;;
82410;SDS011;74662;60.040;30.218;2024-01-15T03:42:59;6.88;;;3.08;;
82410;SDS011;74662;60.040;30.218;2024-01-15T03:43:59;7.68;;;3.55;;
82410;SDS011;74662;60.040;30.218;2024-01-15T03:47:21;6.15;;;3.42;;
82410;SDS011;74662;60.040;30.218;2024-01-15T03:49:40;5.43;;;2.63;;
82410;SDS011;74662;60.040;30.218;2024-01-15T03:50:41;6.78;;;2.80;;
82410;SDS011;74662;60.040;30.218;2024-01-15T03:51:41;8.82;;;3.25;;
82410;SDS011;74662;60.040;30.218;2024-01-15T03:52:42;9.30;;;3.80;;
82410;SDS011;74662;60.040;30.218;2024-01-15T03:54:01;6.25;;;3.15;;
82410;SDS011;74662;60.040;30.218;2024-01-15T03:55:03;7.82;;;3.08;;
82410;SDS011;74662;60.040;30.218;2024-01-15T03:56:04;7.82;;;3.25;;
82410;SDS011;74662;60.040;30.218;2024-01-15T03:57:05;8.32;;;3.10;;
82410;SDS011;74662;60.040;30.218;2024-01-15T03:58:05;7.88;;;2.88;;
82410;SDS011;74662;60.040;30.218;2024-01-15T04:01:26;4.57;;;2.13;;
82410;SDS011;74662;60.040;30.218;2024-01-15T04:02:26;6.75;;;2.78;;
82410;SDS011;74662;60.040;30.218;2024-01-15T04:03:27;8.55;;;2.65;;
82410;SDS011;74662;60.040;30.218;2024-01-15T04:04:27;7.95;;;3.30;;
82410;SDS011;74662;60.040;30.218;2024-01-15T04:07:05;6.15;;;2.58;;
82410;SDS011;74662;60.040;30.218;2024-01-15T04:08:06;7.07;;;3.30;;
82410;SDS011;74662;60.040;30.218;2024-01-15T04:10:26;8.57;;;3.17;;
82410;SDS011;74662;60.040;30.218;2024-01-15T04:11:27;7.57;;;3.47;;
82410;SDS011;74662;60.040;30.218;2024-01-15T04:12:46;9.65;;;3.20;;
82410;SDS011;74662;60.040;30.218;2024-01-15T04:13:46;8.20;;;3.20;;
82410;SDS011;74662;60.040;30.218;2024-01-15T04:14:47;8.00;;;3.30;;
82410;SDS011;74662;60.040;30.218;2024-01-15T04:15:48;6.18;;;3.08;;
82410;SDS011;74662;60.040;30.218;2024-01-15T04:16:48;7.25;;;3.30;;
82410;SDS011;74662;60.040;30.218;2024-01-15T04:17:49;6.13;;;3.20;;
82410;SDS011;74662;60.040;30.218;2024-01-15T04:18:49;6.75;;;2.67;;
82410;SDS011;74662;60.040;30.218;2024-01-15T04:19:50;8.00;;;2.60;;
82410;SDS011;74662;60.040;30.218;2024-01-15T04:22:09;8.00;;;3.25;;
82410;SDS011;74662;60.040;30.218;2024-01-15T04:23:10;8.85;;;3.50;;
82410;SDS011;74662;60.040;30.218;2024-01-15T04:24:11;7.78;;;3.17;;
82410;SDS011;74662;60.040;30.218;2024-01-15T04:25:30;8.13;;;3.00;;
82410;SDS011;74662;60.040;30.218;2024-01-15T04:26:30;8.02;;;2.75;;
82410;SDS011;74662;60.040;30.218;2024-01-15T04:27:31;5.43;;;3.17;;
82410;SDS011;74662;60.040;30.218;2024-01-15T04:28:31;7.93;;;3.58;;
82410;SDS011;74662;60.040;30.218;2024-01-15T04:29:50;6.30;;;3.17;;
82410;SDS011;74662;60.040;30.218;2024-01-15T04:30:51;5.55;;;2.70;;
82410;SDS011;74662;60.040;30.218;2024-01-15T04:31:52;7.03;;;3.03;;
82410;SDS011;74662;60.040;30.218;2024-01-15T04:33:11;7.85;;;3.58;;
82410;SDS011;74662;60.040;30.218;2024-01-15T04:34:12;6.10;;;3.10;;
82410;SDS011;74662;60.040;30.218;2024-01-15T04:35:12;6.35;;;3.25;;
82410;SDS011;74662;60.040;30.218;2024-01-15T04:36:31;7.72;;;3.20;;
82410;SDS011;74662;60.040;30.218;2024-01-15T04:37:32;8.27;;;3.08;;
82410;SDS011;74662;60.040;30.218;2024-01-15T04:38:32;7.47;;;3.13;;
82410;SDS011;74662;60.040;30.218;2024-01-15T04:39:33;7.82;;;3.40;;
82410;SDS011;74662;60.040;30.218;2024-01-15T04:40:34;9.25;;;3.33;;
82410;SDS011;74662;60.040;30.218;2024-01-15T04:41:34;7.15;;;3.00;;
82410;SDS011;74662;60.040;30.218;2024-01-15T04:43:54;7.45;;;3.38;;
82410;SDS011;74662;60.040;30.218;2024-01-15T04:44:55;7.05;;;2.63;;
82410;SDS011;74662;60.040;30.218;2024-01-15T04:45:55;7.20;;;3.15;;
82410;SDS011;74662;60.040;30.218;2024-01-15T04:46:56;5.22;;;2.78;;
82410;SDS011;74662;60.040;30.218;2024-01-15T04:47:56;8.27;;;3.03;;
82410;SDS011;74662;60.040;30.218;2024-01-15T04:48:58;9.23;;;3.30;;
82410;SDS011;74662;60.040;30.218;2024-01-15T04:49:58;9.68;;;3.67;;
82410;SDS011;74662;60.040;30.218;2024-01-15T04:51:17;12.07;;;3.28;;
82410;SDS011;74662;60.040;30.218;2024-01-15T04:52:18;10.48;;;3.35;;
82410;SDS011;74662;60.040;30.218;2024-01-15T04:54:37;7.22;;;3.75;;
82410;SDS011;74662;60.040;30.218;2024-01-15T04:55:38;8.35;;;3.50;;
82410;SDS011;74662;60.040;30.218;2024-01-15T04:56:39;10.38;;;3.47;;
82410;SDS011;74662;60.040;30.218;2024-01-15T04:57:39;6.40;;;3.20;;
82410;SDS011;74662;60.040;30.218;2024-01-15T04:58:40;6.95;;;2.92;;
82410;SDS011;74662;60.040;30.218;2024-01-15T04:59:40;7.68;;;3.38;;
82410;SDS011;74662;60.040;30.218;2024-01-15T05:00:41;7.60;;;3.50;;
82410;SDS011;74662;60.040;30.218;2024-01-15T05:03:01;6.88;;;3.03;;
82410;SDS011;74662;60.040;30.218;2024-01-15T05:04:02;7.68;;;3.60;;
82410;SDS011;74662;60.040;30.218;2024-01-15T05:05:21;6.50;;;3.13;;
82410;SDS011;74662;60.040;30.218;2024-01-15T05:06:22;9.90;;;3.22;;
82410;SDS011;74662;60.040;30.218;2024-01-15T05:07:22;9.27;;;3.45;;
82410;SDS011;74662;60.040;30.218;2024-01-15T05:08:23;7.25;;;3.40;;
82410;SDS011;74662;60.040;30.218;2024-01-15T05:09:24;10.07;;;3.10;;
82410;SDS011;74662;60.040;30.218;2024-01-15T05:10:24;7.50;;;3.50;;
82410;SDS011;74662;60.040;30.218;2024-01-15T05:11:25;7.10;;;3.22;;
82410;SDS011;74662;60.040;30.218;2024-01-15T05:12:26;7.63;;;3.22;;
82410;SDS011;74662;60.040;30.218;2024-01-15T05:13:26;6.93;;;3.03;;
82410;SDS011;74662;60.040;30.218;2024-01-15T05:14:27;8.35;;;3.03;;
82410;SDS011;74662;60.040;30.218;2024-01-15T05:15:27;7.70;;;3.20;;
82410;SDS011;74662;60.040;30.218;2024-01-15T05:16:28;6.30;;;2.92;;
82410;SDS011;74662;60.040;30.218;2024-01-15T05:17:28;5.05;;;2.90;;
82410;SDS011;74662;60.040;30.218;2024-01-15T05:18:48;10.15;;;3.10;;
82410;SDS011;74662;60.040;30.218;2024-01-15T05:19:48;8.02;;;3.30;;
82410;SDS011;74662;60.040;30.218;2024-01-15T05:20:49;9.02;;;3.70;;
82410;SDS011;74662;60.040;30.218;2024-01-15T05:22:07;6.60;;;3.25;;
82410;SDS011;74662;60.040;30.218;2024-01-15T05:23:08;9.48;;;3.47;;
82410;SDS011;74662;60.040;30.218;2024-01-15T05:24:09;6.45;;;3.17;;
82410;SDS011;74662;60.040;30.218;2024-01-15T05:25:09;9.65;;;3.15;;
82410;SDS011;74662;60.040;30.218;2024-01-15T05:26:10;10.95;;;3.13;;
82410;SDS011;74662;60.040;30.218;2024-01-15T05:27:28;7.55;;;3.55;;
82410;SDS011;74662;60.040;30.218;2024-01-15T05:28:29;8.65;;;3.40;;
82410;SDS011;74662;60.040;30.218;2024-01-15T05:29:30;9.45;;;3.65;;
82410;SDS011;74662;60.040;30.218;2024-01-15T05:30:30;6.65;;;3.30;;
82410;SDS011;74662;60.040;30.218;2024-01-15T05:31:31;9.48;;;3.50;;
82410;SDS011;74662;60.040;30.218;2024-01-15T05:32:32;7.60;;;3.33;;
82410;SDS011;74662;60.040;30.218;2024-01-15T05:33:32;7.30;;;3.08;;
82410;SDS011;74662;60.040;30.218;2024-01-15T05:34:33;6.05;;;3.20;;
82410;SDS011;74662;60.040;30.218;2024-01-15T05:35:34;8.85;;;3.33;;
82410;SDS011;74662;60.040;30.218;2024-01-15T05:36:34;10.23;;;3.80;;
82410;SDS011;74662;60.040;30.218;2024-01-15T05:37:35;9.70;;;3.58;;
82410;SDS011;74662;60.040;30.218;2024-01-15T05:39:55;9.38;;;3.40;;
82410;SDS011;74662;60.040;30.218;2024-01-15T05:41:14;7.47;;;3.17;;
82410;SDS011;74662;60.040;30.218;2024-01-15T05:42:15;9.15;;;2.88;;
82410;SDS011;74662;60.040;30.218;2024-01-15T05:43:16;9.95;;;3.92;;
82410;SDS011;74662;60.040;30.218;2024-01-15T05:44:16;9.18;;;3.53;;
82410;SDS011;74662;60.040;30.218;2024-01-15T05:45:17;7.90;;;3.35;;
82410;SDS011;74662;60.040;30.218;2024-01-15T05:46:17;7.80;;;3.53;;
82410;SDS011;74662;60.040;30.218;2024-01-15T05:47:18;7.65;;;3.35;;
82410;SDS011;74662;60.040;30.218;2024-01-15T05:48:18;9.38;;;3.75;;
82410;SDS011;74662;60.040;30.218;2024-01-15T05:49:19;8.10;;;4.07;;
82410;SDS011;74662;60.040;30.218;2024-01-15T05:50:19;9.02;;;4.00;;
82410;SDS011;74662;60.040;30.218;2024-01-15T05:51:20;11.85;;;3.78;;
82410;SDS011;74662;60.040;30.218;2024-01-15T05:53:58;8.65;;;3.38;;
82410;SDS011;74662;60.040;30.218;2024-01-15T05:54:59;11.15;;;3.75;;
82410;SDS011;74662;60.040;30.218;2024-01-15T05:56:00;8.13;;;3.10;;
82410;SDS011;74662;60.040;30.218;2024-01-15T05:57:01;7.93;;;3.60;;
82410;SDS011;74662;60.040;30.218;2024-01-15T05:58:01;10.90;;;4.03;;
82410;SDS011;74662;60.040;30.218;2024-01-15T05:59:02;13.70;;;3.80;;
82410;SDS011;74662;60.040;30.218;2024-01-15T06:00:03;12.20;;;4.18;;
82410;SDS011;74662;60.040;30.218;2024-01-15T06:01:04;10.73;;;4.18;;
82410;SDS011;74662;60.040;30.218;2024-01-15T06:02:05;10.63;;;3.95;;
82410;SDS011;74662;60.040;30.218;2024-01-15T06:03:05;12.90;;;3.85;;
82410;SDS011;74662;60.040;30.218;2024-01-15T06:07:45;11.02;;;3.53;;
82410;SDS011;74662;60.040;30.218;2024-01-15T06:08:45;10.60;;;4.05;;
82410;SDS011;74662;60.040;30.218;2024-01-15T06:09:46;7.40;;;3.20;;
82410;SDS011;74662;60.040;30.218;2024-01-15T06:10:46;8.57;;;3.67;;
82410;SDS011;74662;60.040;30.218;2024-01-15T06:11:47;5.65;;;3.28;;
82410;SDS011;74662;60.040;30.218;2024-01-15T06:12:48;11.27;;;4.35;;
82410;SDS011;74662;60.040;30.218;2024-01-15T06:13:48;12.38;;;3.92;;
82410;SDS011;74662;60.040;30.218;2024-01-15T06:17:13;9.82;;;4.75;;
82410;SDS011;74662;60.040;30.218;2024-01-15T06:18:32;11.60;;;4.65;;
82410;SDS011;74662;60.040;30.218;2024-01-15T06:19:32;10.45;;;4.25;;
82410;SDS011;74662;60.040;30.218;2024-01-15T06:20:33;10.88;;;4.82;;
82410;SDS011;74662;60.040;30.218;2024-01-15T06:21:33;11.77;;;4.10;;
82410;SDS011;74662;60.040;30.218;2024-01-15T06:22:34;9.57;;;4.07;;
82410;SDS011;74662;60.040;30.218;2024-01-15T06:24:37;11.60;;;3.83;;
82410;SDS011;74662;60.040;30.218;2024-01-15T06:25:37;15.45;;;4.45;;
82410;SDS011;74662;60.040;30.218;2024-01-15T06:26:38;13.55;;;4.03;;
82410;SDS011;74662;60.040;30.218;2024-01-15T06:27:39;11.82;;;4.10;;
82410;SDS011;74662;60.040;30.218;2024-01-15T06:28:58;14.82;;;5.68;;
82410;SDS011;74662;60.040;30.218;2024-01-15T06:29:58;16.60;;;4.63;;
82410;SDS011;74662;60.040;30.218;2024-01-15T06:30:59;10.90;;;4.22;;
82410;SDS011;74662;60.040;30.218;2024-01-15T06:31:59;15.10;;;5.07;;
82410;SDS011;74662;60.040;30.218;2024-01-15T06:33:00;13.88;;;5.35;;
82410;SDS011;74662;60.040;30.218;2024-01-15T06:34:01;12.60;;;4.43;;
82410;SDS011;74662;60.040;30.218;2024-01-15T06:35:01;12.40;;;4.70;;
82410;SDS011;74662;60.040;30.218;2024-01-15T06:36:02;13.20;;;5.20;;
82410;SDS011;74662;60.040;30.218;2024-01-15T06:37:21;13.90;;;5.10;;
82410;SDS011;74662;60.040;30.218;2024-01-15T06:38:22;9.63;;;4.70;;
82410;SDS011;74662;60.040;30.218;2024-01-15T06:39:23;11.60;;;4.75;;
82410;SDS011;74662;60.040;30.218;2024-01-15T06:40:24;13.98;;;4.90;;
82410;SDS011;74662;60.040;30.218;2024-01-15T06:41:25;13.20;;;5.50;;
82410;SDS011;74662;60.040;30.218;2024-01-15T06:42:25;16.15;;;5.78;;
82410;SDS011;74662;60.040;30.218;2024-01-15T06:43:26;12.18;;;5.30;;
82410;SDS011;74662;60.040;30.218;2024-01-15T06:44:45;18.08;;;5.45;;
82410;SDS011;74662;60.040;30.218;2024-01-15T06:45:45;13.70;;;5.25;;
82410;SDS011;74662;60.040;30.218;2024-01-15T06:46:47;16.25;;;6.07;;
82410;SDS011;74662;60.040;30.218;2024-01-15T06:47:47;18.15;;;5.60;;
82410;SDS011;74662;60.040;30.218;2024-01-15T06:50:07;15.80;;;4.93;;
82410;SDS011;74662;60.040;30.218;2024-01-15T06:51:08;13.07;;;4.40;;
82410;SDS011;74662;60.040;30.218;2024-01-15T06:52:08;12.93;;;5.10;;
82410;SDS011;74662;60.040;30.218;2024-01-15T06:53:09;14.88;;;4.80;;
82410;SDS011;74662;60.040;30.218;2024-01-15T06:55:29;13.77;;;5.80;;
82410;SDS011;74662;60.040;30.218;2024-01-15T06:56:30;20.83;;;5.05;;
82410;SDS011;74662;60.040;30.218;2024-01-15T06:57:31;13.57;;;4.70;;
82410;SDS011;74662;60.040;30.218;2024-01-15T06:58:32;12.95;;;4.25;;
82410;SDS011;74662;60.040;30.218;2024-01-15T07:00:52;18.08;;;5.45;;
82410;SDS011;74662;60.040;30.218;2024-01-15T07:01:52;18.98;;;5.65;;